sensor_id;sensor_type;location;lat;lon;timestamp;P1;durP1;ratioP1;P2;durP2;ratioP2
74636;SDS011;63141;54.616;39.754;2022-09-03T00:02:05;13.95;;;4.47;;
74636;SDS011;63141;54.616;39.754;2022-09-03T00:09:28;9.93;;;4.10;;
74636;SDS011;63141;54.616;39.754;2022-09-03T00:12:36;10.18;;;4.00;;
74636;SDS011;63141;54.616;39.754;2022-09-03T00:15:42;11.48;;;4.50;;
74636;SDS011;63141;54.616;39.754;2022-09-03T00:18:45;11.25;;;4.22;;
74636;SDS011;63141;54.616;39.754;2022-09-03T00:21:58;8.07;;;3.75;;
74636;SDS011;63141;54.616;39.754;2022-09-03T00:25:08;9.25;;;3.85;;
74636;SDS011;63141;54.616;39.754;2022-09-03T00:28:24;9.98;;;4.25;;
74636;SDS011;63141;54.616;39.754;2022-09-03T00:31:34;8.65;;;3.42;;
74636;SDS011;63141;54.616;39.754;2022-09-03T00:34:40;9.00;;;4.03;;
74636;SDS011;63141;54.616;39.754;2022-09-03T00:37:45;12.15;;;3.97;;
74636;SDS011;63141;54.616;39.754;2022-09-03T00:44:14;8.85;;;3.50;;
74636;SDS011;63141;54.616;39.754;2022-09-03T01:00:32;9.90;;;3.80;;
74636;SDS011;63141;54.616;39.754;2022-09-03T01:03:37;6.53;;;3.38;;
74636;SDS011;63141;54.616;39.754;2022-09-03T01:10:17;6.57;;;2.95;;
74636;SDS011;63141;54.616;39.754;2022-09-03T01:13:46;7.07;;;2.78;;
74636;SDS011;63141;54.616;39.754;2022-09-03T01:20:31;9.27;;;3.13;;
74636;SDS011;63141;54.616;39.754;2022-09-03T01:36:14;6.38;;;2.42;;
74636;SDS011;63141;54.616;39.754;2022-09-03T01:43:28;5.32;;;2.67;;
74636;SDS011;63141;54.616;39.754;2022-09-03T01:46:38;6.95;;;2.67;;
74636;SDS011;63141;54.616;39.754;2022-09-03T01:49:50;7.18;;;2.67;;
74636;SDS011;63141;54.616;39.754;2022-09-03T02:00:05;6.45;;;2.58;;
74636;SDS011;63141;54.616;39.754;2022-09-03T02:03:16;6.35;;;2.35;;
74636;SDS011;63141;54.616;39.754;2022-09-03T02:06:17;4.55;;;2.15;;
74636;SDS011;63141;54.616;39.754;2022-09-03T02:09:20;5.72;;;2.10;;
74636;SDS011;63141;54.616;39.754;2022-09-03T02:12:22;4.32;;;2.33;;
74636;SDS011;63141;54.616;39.754;2022-09-03T02:15:24;5.50;;;2.28;;
74636;SDS011;63141;54.616;39.754;2022-09-03T02:18:30;5.65;;;2.28;;
74636;SDS011;63141;54.616;39.754;2022-09-03T02:21:43;5.57;;;2.42;;
74636;SDS011;63141;54.616;39.754;2022-09-03T02:24:50;6.10;;;2.28;;
74636;SDS011;63141;54.616;39.754;2022-09-03T02:27:52;4.85;;;2.30;;
74636;SDS011;63141;54.616;39.754;2022-09-03T02:30:54;4.82;;;2.47;;
74636;SDS011;63141;54.616;39.754;2022-09-03T02:33:56;4.85;;;2.28;;
74636;SDS011;63141;54.616;39.754;2022-09-03T02:36:58;3.90;;;1.80;;
74636;SDS011;63141;54.616;39.754;2022-09-03T02:40:00;4.63;;;2.10;;
74636;SDS011;63141;54.616;39.754;2022-09-03T02:43:07;4.37;;;2.13;;
74636;SDS011;63141;54.616;39.754;2022-09-03T02:46:18;4.03;;;1.98;;
74636;SDS011;63141;54.616;39.754;2022-09-03T02:49:22;3.67;;;2.00;;
74636;SDS011;63141;54.616;39.754;2022-09-03T02:52:23;6.43;;;2.42;;
74636;SDS011;63141;54.616;39.754;2022-09-03T02:55:25;3.20;;;1.85;;
74636;SDS011;63141;54.616;39.754;2022-09-03T02:58:27;4.68;;;2.13;;
74636;SDS011;63141;54.616;39.754;2022-09-03T03:01:29;4.47;;;1.55;;
74636;SDS011;63141;54.616;39.754;2022-09-03T03:04:35;4.47;;;2.10;;
74636;SDS011;63141;54.616;39.754;2022-09-03T03:07:38;2.55;;;1.67;;
74636;SDS011;63141;54.616;39.754;2022-09-03T03:10:40;4.38;;;1.80;;
74636;SDS011;63141;54.616;39.754;2022-09-03T03:13:44;3.38;;;1.65;;
74636;SDS011;63141;54.616;39.754;2022-09-03T03:16:47;4.13;;;1.80;;
74636;SDS011;63141;54.616;39.754;2022-09-03T03:19:49;3.90;;;1.90;;
74636;SDS011;63141;54.616;39.754;2022-09-03T03:22:50;5.15;;;2.15;;
74636;SDS011;63141;54.616;39.754;2022-09-03T03:25:51;4.65;;;2.03;;
74636;SDS011;63141;54.616;39.754;2022-09-03T03:28:57;4.55;;;2.05;;
74636;SDS011;63141;54.616;39.754;2022-09-03T03:32:00;2.47;;;1.67;;
74636;SDS011;63141;54.616;39.754;2022-09-03T03:35:02;2.53;;;1.40;;
74636;SDS011;63141;54.616;39.754;2022-09-03T03:38:05;4.05;;;1.55;;
74636;SDS011;63141;54.616;39.754;2022-09-03T03:41:14;3.00;;;1.52;;
74636;SDS011;63141;54.616;39.754;2022-09-03T03:44:17;3.10;;;1.85;;
74636;SDS011;63141;54.616;39.754;2022-09-03T03:47:20;4.20;;;1.80;;
74636;SDS011;63141;54.616;39.754;2022-09-03T03:50:21;2.63;;;1.50;;
74636;SDS011;63141;54.616;39.754;2022-09-03T03:53:23;2.75;;;1.70;;
74636;SDS011;63141;54.616;39.754;2022-09-03T03:56:25;3.67;;;1.50;;
74636;SDS011;63141;54.616;39.754;2022-09-03T03:59:27;3.10;;;1.75;;
74636;SDS011;63141;54.616;39.754;2022-09-03T04:05:56;2.47;;;1.60;;
74636;SDS011;63141;54.616;39.754;2022-09-03T04:08:59;4.07;;;1.70;;
74636;SDS011;63141;54.616;39.754;2022-09-03T04:12:01;3.85;;;1.75;;
74636;SDS011;63141;54.616;39.754;2022-09-03T04:15:03;3.88;;;1.45;;
74636;SDS011;63141;54.616;39.754;2022-09-03T04:18:06;3.20;;;1.42;;
74636;SDS011;63141;54.616;39.754;2022-09-03T04:21:12;2.25;;;1.27;;
74636;SDS011;63141;54.616;39.754;2022-09-03T04:24:15;3.17;;;1.58;;
74636;SDS011;63141;54.616;39.754;2022-09-03T04:27:16;1.80;;;1.05;;
74636;SDS011;63141;54.616;39.754;2022-09-03T04:30:18;2.78;;;1.50;;
74636;SDS011;63141;54.616;39.754;2022-09-03T04:33:20;3.28;;;1.50;;
74636;SDS011;63141;54.616;39.754;2022-09-03T04:36:25;2.83;;;1.30;;
74636;SDS011;63141;54.616;39.754;2022-09-03T04:39:28;2.47;;;1.35;;
74636;SDS011;63141;54.616;39.754;2022-09-03T04:42:29;1.85;;;1.20;;
74636;SDS011;63141;54.616;39.754;2022-09-03T04:45:31;2.63;;;1.35;;
74636;SDS011;63141;54.616;39.754;2022-09-03T04:48:33;2.55;;;1.25;;
74636;SDS011;63141;54.616;39.754;2022-09-03T04:51:36;2.97;;;1.10;;
74636;SDS011;63141;54.616;39.754;2022-09-03T04:54:38;2.17;;;1.40;;
74636;SDS011;63141;54.616;39.754;2022-09-03T04:57:39;2.38;;;1.00;;
74636;SDS011;63141;54.616;39.754;2022-09-03T05:00:46;4.10;;;1.20;;
74636;SDS011;63141;54.616;39.754;2022-09-03T05:03:47;4.20;;;1.40;;
74636;SDS011;63141;54.616;39.754;2022-09-03T05:06:54;2.42;;;1.20;;
74636;SDS011;63141;54.616;39.754;2022-09-03T05:09:56;2.17;;;0.98;;
74636;SDS011;63141;54.616;39.754;2022-09-03T05:13:04;3.10;;;1.40;;
74636;SDS011;63141;54.616;39.754;2022-09-03T05:16:06;2.95;;;1.20;;
74636;SDS011;63141;54.616;39.754;2022-09-03T05:19:10;5.60;;;1.55;;
74636;SDS011;63141;54.616;39.754;2022-09-03T05:22:12;2.58;;;1.25;;
74636;SDS011;63141;54.616;39.754;2022-09-03T05:25:15;4.05;;;1.50;;
74636;SDS011;63141;54.616;39.754;2022-09-03T05:28:17;2.88;;;1.33;;
74636;SDS011;63141;54.616;39.754;2022-09-03T05:31:18;3.53;;;1.15;;
74636;SDS011;63141;54.616;39.754;2022-09-03T05:34:20;2.90;;;1.23;;
74636;SDS011;63141;54.616;39.754;2022-09-03T05:37:22;2.88;;;1.00;;
74636;SDS011;63141;54.616;39.754;2022-09-03T05:40:23;2.85;;;1.15;;
74636;SDS011;63141;54.616;39.754;2022-09-03T05:43:25;1.77;;;1.20;;
74636;SDS011;63141;54.616;39.754;2022-09-03T05:46:28;1.83;;;1.02;;
74636;SDS011;63141;54.616;39.754;2022-09-03T05:49:32;2.40;;;1.27;;
74636;SDS011;63141;54.616;39.754;2022-09-03T05:52:33;2.13;;;1.25;;
74636;SDS011;63141;54.616;39.754;2022-09-03T05:55:35;4.22;;;1.30;;
74636;SDS011;63141;54.616;39.754;2022-09-03T05:58:40;3.08;;;1.30;;
74636;SDS011;63141;54.616;39.754;2022-09-03T06:01:45;3.15;;;1.40;;
74636;SDS011;63141;54.616;39.754;2022-09-03T06:04:52;2.90;;;1.15;;
74636;SDS011;63141;54.616;39.754;2022-09-03T06:07:54;2.63;;;1.50;;
74636;SDS011;63141;54.616;39.754;2022-09-03T06:10:59;3.40;;;1.60;;
74636;SDS011;63141;54.616;39.754;2022-09-03T06:14:02;2.03;;;1.13;;
74636;SDS011;63141;54.616;39.754;2022-09-03T06:17:09;3.20;;;1.25;;
74636;SDS011;63141;54.616;39.754;2022-09-03T06:20:12;2.08;;;1.20;;
74636;SDS011;63141;54.616;39.754;2022-09-03T06:23:33;3.33;;;1.20;;
74636;SDS011;63141;54.616;39.754;2022-09-03T06:26:35;2.30;;;1.08;;
74636;SDS011;63141;54.616;39.754;2022-09-03T06:29:37;2.75;;;1.20;;
74636;SDS011;63141;54.616;39.754;2022-09-03T06:32:45;1.25;;;1.00;;
74636;SDS011;63141;54.616;39.754;2022-09-03T06:35:47;4.18;;;1.30;;
74636;SDS011;63141;54.616;39.754;2022-09-03T06:38:52;1.65;;;1.00;;
74636;SDS011;63141;54.616;39.754;2022-09-03T06:41:55;3.00;;;1.10;;
74636;SDS011;63141;54.616;39.754;2022-09-03T06:45:08;2.90;;;1.17;;
74636;SDS011;63141;54.616;39.754;2022-09-03T06:48:10;3.17;;;1.15;;
74636;SDS011;63141;54.616;39.754;2022-09-03T06:51:12;3.00;;;1.20;;
74636;SDS011;63141;54.616;39.754;2022-09-03T06:54:16;2.75;;;1.10;;
74636;SDS011;63141;54.616;39.754;2022-09-03T06:57:17;2.80;;;1.20;;
74636;SDS011;63141;54.616;39.754;2022-09-03T07:00:21;2.80;;;1.10;;
74636;SDS011;63141;54.616;39.754;2022-09-03T07:03:23;2.47;;;1.20;;
74636;SDS011;63141;54.616;39.754;2022-09-03T07:06:31;2.05;;;1.20;;
74636;SDS011;63141;54.616;39.754;2022-09-03T07:09:37;5.47;;;1.02;;
74636;SDS011;63141;54.616;39.754;2022-09-03T07:12:38;3.75;;;1.38;;
74636;SDS011;63141;54.616;39.754;2022-09-03T07:15:40;2.25;;;1.23;;
74636;SDS011;63141;54.616;39.754;2022-09-03T07:18:42;2.50;;;1.48;;
74636;SDS011;63141;54.616;39.754;2022-09-03T07:21:43;3.88;;;1.45;;
74636;SDS011;63141;54.616;39.754;2022-09-03T07:24:45;5.97;;;1.38;;
74636;SDS011;63141;54.616;39.754;2022-09-03T07:27:47;3.67;;;1.27;;
74636;SDS011;63141;54.616;39.754;2022-09-03T07:30:51;4.82;;;1.70;;
74636;SDS011;63141;54.616;39.754;2022-09-03T07:33:53;5.53;;;1.67;;
74636;SDS011;63141;54.616;39.754;2022-09-03T07:36:55;3.60;;;1.08;;
74636;SDS011;63141;54.616;39.754;2022-09-03T07:39:57;2.67;;;1.33;;
74636;SDS011;63141;54.616;39.754;2022-09-03T07:42:58;3.75;;;1.00;;
74636;SDS011;63141;54.616;39.754;2022-09-03T07:46:03;6.63;;;1.30;;
74636;SDS011;63141;54.616;39.754;2022-09-03T07:49:05;5.72;;;1.33;;
74636;SDS011;63141;54.616;39.754;2022-09-03T07:52:06;3.13;;;1.20;;
74636;SDS011;63141;54.616;39.754;2022-09-03T07:55:08;2.10;;;1.20;;
74636;SDS011;63141;54.616;39.754;2022-09-03T07:58:09;2.90;;;1.30;;
74636;SDS011;63141;54.616;39.754;2022-09-03T08:01:16;2.97;;;1.15;;
74636;SDS011;63141;54.616;39.754;2022-09-03T08:04:19;3.95;;;1.10;;
74636;SDS011;63141;54.616;39.754;2022-09-03T08:07:23;1.85;;;1.05;;
74636;SDS011;63141;54.616;39.754;2022-09-03T08:10:24;3.72;;;1.20;;
74636;SDS011;63141;54.616;39.754;2022-09-03T08:13:28;2.72;;;1.30;;
74636;SDS011;63141;54.616;39.754;2022-09-03T08:16:30;2.88;;;1.40;;
74636;SDS011;63141;54.616;39.754;2022-09-03T08:19:33;2.40;;;1.40;;
74636;SDS011;63141;54.616;39.754;2022-09-03T08:22:34;2.17;;;0.90;;
74636;SDS011;63141;54.616;39.754;2022-09-03T08:25:37;1.95;;;1.00;;
74636;SDS011;63141;54.616;39.754;2022-09-03T08:28:38;2.38;;;1.00;;
74636;SDS011;63141;54.616;39.754;2022-09-03T08:31:40;1.98;;;1.08;;
74636;SDS011;63141;54.616;39.754;2022-09-03T08:34:42;2.78;;;1.10;;
74636;SDS011;63141;54.616;39.754;2022-09-03T08:37:44;3.72;;;1.20;;
74636;SDS011;63141;54.616;39.754;2022-09-03T08:40:45;3.90;;;1.10;;
74636;SDS011;63141;54.616;39.754;2022-09-03T08:43:56;2.85;;;1.00;;
74636;SDS011;63141;54.616;39.754;2022-09-03T08:51:15;2.22;;;1.20;;
74636;SDS011;63141;54.616;39.754;2022-09-03T08:54:24;3.08;;;1.17;;
74636;SDS011;63141;54.616;39.754;2022-09-03T08:57:30;2.33;;;1.02;;
74636;SDS011;63141;54.616;39.754;2022-09-03T09:04:09;3.58;;;1.08;;
74636;SDS011;63141;54.616;39.754;2022-09-03T09:10:48;2.25;;;1.20;;
74636;SDS011;63141;54.616;39.754;2022-09-03T09:14:07;1.85;;;0.98;;
74636;SDS011;63141;54.616;39.754;2022-09-03T09:21:10;1.87;;;0.93;;
74636;SDS011;63141;54.616;39.754;2022-09-03T09:24:18;3.05;;;1.00;;
74636;SDS011;63141;54.616;39.754;2022-09-03T09:27:24;2.17;;;0.90;;
74636;SDS011;63141;54.616;39.754;2022-09-03T09:30:25;2.15;;;0.88;;
74636;SDS011;63141;54.616;39.754;2022-09-03T09:33:29;2.03;;;0.98;;
74636;SDS011;63141;54.616;39.754;2022-09-03T09:36:36;2.73;;;0.93;;
74636;SDS011;63141;54.616;39.754;2022-09-03T09:39:53;17.00;;;1.35;;
74636;SDS011;63141;54.616;39.754;2022-09-03T09:46:25;8.48;;;1.00;;
74636;SDS011;63141;54.616;39.754;2022-09-03T09:49:34;5.47;;;1.10;;
74636;SDS011;63141;54.616;39.754;2022-09-03T09:52:38;4.15;;;1.10;;
74636;SDS011;63141;54.616;39.754;2022-09-03T09:55:49;3.35;;;0.88;;
74636;SDS011;63141;54.616;39.754;2022-09-03T09:59:02;29.23;;;12.27;;
74636;SDS011;63141;54.616;39.754;2022-09-03T10:02:19;4.40;;;1.00;;
74636;SDS011;63141;54.616;39.754;2022-09-03T10:05:29;9.73;;;1.30;;
74636;SDS011;63141;54.616;39.754;2022-09-03T10:08:36;4.60;;;1.15;;
74636;SDS011;63141;54.616;39.754;2022-09-03T10:11:39;7.10;;;1.40;;
74636;SDS011;63141;54.616;39.754;2022-09-03T10:14:48;9.65;;;1.33;;
74636;SDS011;63141;54.616;39.754;2022-09-03T10:21:44;9.07;;;0.90;;
74636;SDS011;63141;54.616;39.754;2022-09-03T10:24:57;3.50;;;1.02;;
74636;SDS011;63141;54.616;39.754;2022-09-03T10:28:02;1.75;;;0.70;;
74636;SDS011;63141;54.616;39.754;2022-09-03T10:34:37;2.05;;;0.85;;
74636;SDS011;63141;54.616;39.754;2022-09-03T10:37:50;2.88;;;0.85;;
74636;SDS011;63141;54.616;39.754;2022-09-03T10:41:06;4.40;;;1.10;;
74636;SDS011;63141;54.616;39.754;2022-09-03T10:51:05;13.38;;;4.97;;
74636;SDS011;63141;54.616;39.754;2022-09-03T11:00:52;3.00;;;1.02;;
74636;SDS011;63141;54.616;39.754;2022-09-03T11:04:11;9.90;;;1.27;;
74636;SDS011;63141;54.616;39.754;2022-09-03T11:07:20;3.40;;;1.00;;
74636;SDS011;63141;54.616;39.754;2022-09-03T11:10:33;5.53;;;1.20;;
74636;SDS011;63141;54.616;39.754;2022-09-03T11:13:43;4.85;;;1.05;;
74636;SDS011;63141;54.616;39.754;2022-09-03T11:17:25;4.32;;;0.98;;
74636;SDS011;63141;54.616;39.754;2022-09-03T11:20:29;3.15;;;1.13;;
74636;SDS011;63141;54.616;39.754;2022-09-03T11:23:34;5.13;;;1.20;;
74636;SDS011;63141;54.616;39.754;2022-09-03T11:26:42;4.40;;;0.82;;
74636;SDS011;63141;54.616;39.754;2022-09-03T11:29:50;5.03;;;0.95;;
74636;SDS011;63141;54.616;39.754;2022-09-03T11:33:05;2.90;;;0.90;;
74636;SDS011;63141;54.616;39.754;2022-09-03T11:36:09;3.97;;;0.90;;
74636;SDS011;63141;54.616;39.754;2022-09-03T11:39:12;6.57;;;1.10;;
74636;SDS011;63141;54.616;39.754;2022-09-03T11:42:29;1.55;;;0.77;;
74636;SDS011;63141;54.616;39.754;2022-09-03T11:45:35;1.67;;;0.70;;
74636;SDS011;63141;54.616;39.754;2022-09-03T11:48:39;1.88;;;0.85;;
74636;SDS011;63141;54.616;39.754;2022-09-03T11:51:43;2.63;;;0.73;;
74636;SDS011;63141;54.616;39.754;2022-09-03T11:54:58;6.47;;;0.80;;
74636;SDS011;63141;54.616;39.754;2022-09-03T11:58:10;3.75;;;1.05;;
74636;SDS011;63141;54.616;39.754;2022-09-03T12:01:16;6.50;;;0.93;;
74636;SDS011;63141;54.616;39.754;2022-09-03T12:04:20;3.35;;;0.80;;
74636;SDS011;63141;54.616;39.754;2022-09-03T12:11:01;1.98;;;0.82;;
74636;SDS011;63141;54.616;39.754;2022-09-03T12:21:12;4.47;;;0.93;;
74636;SDS011;63141;54.616;39.754;2022-09-03T12:24:18;2.63;;;0.60;;
74636;SDS011;63141;54.616;39.754;2022-09-03T12:27:20;3.92;;;1.00;;
74636;SDS011;63141;54.616;39.754;2022-09-03T12:30:26;1.85;;;0.75;;
74636;SDS011;63141;54.616;39.754;2022-09-03T12:33:30;3.97;;;0.85;;
74636;SDS011;63141;54.616;39.754;2022-09-03T12:36:39;2.00;;;0.85;;
74636;SDS011;63141;54.616;39.754;2022-09-03T12:39:49;0.98;;;0.60;;
74636;SDS011;63141;54.616;39.754;2022-09-03T12:42:52;2.35;;;0.60;;
74636;SDS011;63141;54.616;39.754;2022-09-03T12:45:54;3.20;;;1.10;;
74636;SDS011;63141;54.616;39.754;2022-09-03T12:48:57;6.38;;;0.80;;
74636;SDS011;63141;54.616;39.754;2022-09-03T12:52:07;1.25;;;0.70;;
74636;SDS011;63141;54.616;39.754;2022-09-03T12:55:47;5.03;;;0.70;;
74636;SDS011;63141;54.616;39.754;2022-09-03T13:01:57;5.15;;;0.80;;
74636;SDS011;63141;54.616;39.754;2022-09-03T13:05:10;1.70;;;0.70;;
74636;SDS011;63141;54.616;39.754;2022-09-03T13:08:28;1.20;;;0.52;;
74636;SDS011;63141;54.616;39.754;2022-09-03T13:11:33;3.60;;;0.60;;
74636;SDS011;63141;54.616;39.754;2022-09-03T13:14:41;2.53;;;0.83;;
74636;SDS011;63141;54.616;39.754;2022-09-03T13:21:06;1.05;;;0.52;;
74636;SDS011;63141;54.616;39.754;2022-09-03T13:31:32;1.58;;;0.70;;
74636;SDS011;63141;54.616;39.754;2022-09-03T13:34:45;2.50;;;0.70;;
74636;SDS011;63141;54.616;39.754;2022-09-03T13:44:43;2.45;;;0.70;;
74636;SDS011;63141;54.616;39.754;2022-09-03T13:51:38;0.82;;;0.50;;
74636;SDS011;63141;54.616;39.754;2022-09-03T13:55:13;1.08;;;0.50;;
74636;SDS011;63141;54.616;39.754;2022-09-03T13:58:27;1.10;;;0.40;;
74636;SDS011;63141;54.616;39.754;2022-09-03T14:17:57;1.67;;;0.65;;
74636;SDS011;63141;54.616;39.754;2022-09-03T14:21:12;1.67;;;0.73;;
74636;SDS011;63141;54.616;39.754;2022-09-03T14:24:47;2.42;;;0.70;;
74636;SDS011;63141;54.616;39.754;2022-09-03T14:28:10;0.60;;;0.60;;
74636;SDS011;63141;54.616;39.754;2022-09-03T14:31:17;5.60;;;0.70;;
74636;SDS011;63141;54.616;39.754;2022-09-03T14:40:45;6.63;;;1.15;;
74636;SDS011;63141;54.616;39.754;2022-09-03T14:44:11;4.63;;;0.90;;
74636;SDS011;63141;54.616;39.754;2022-09-03T14:47:21;3.55;;;1.10;;
74636;SDS011;63141;54.616;39.754;2022-09-03T14:50:48;3.88;;;1.15;;
74636;SDS011;63141;54.616;39.754;2022-09-03T14:54:14;6.15;;;0.95;;
74636;SDS011;63141;54.616;39.754;2022-09-03T15:01:10;4.20;;;1.00;;
74636;SDS011;63141;54.616;39.754;2022-09-03T15:07:47;3.70;;;1.00;;
74636;SDS011;63141;54.616;39.754;2022-09-03T15:10:59;8.10;;;1.08;;
74636;SDS011;63141;54.616;39.754;2022-09-03T15:14:11;6.18;;;1.10;;
74636;SDS011;63141;54.616;39.754;2022-09-03T15:21:01;3.40;;;1.10;;
74636;SDS011;63141;54.616;39.754;2022-09-03T15:34:18;1.70;;;0.93;;
74636;SDS011;63141;54.616;39.754;2022-09-03T15:37:27;4.43;;;1.23;;
74636;SDS011;63141;54.616;39.754;2022-09-03T15:41:09;2.60;;;1.20;;
74636;SDS011;63141;54.616;39.754;2022-09-03T15:44:12;3.88;;;1.08;;
74636;SDS011;63141;54.616;39.754;2022-09-03T15:47:33;3.92;;;1.27;;
74636;SDS011;63141;54.616;39.754;2022-09-03T15:54:16;3.55;;;1.15;;
74636;SDS011;63141;54.616;39.754;2022-09-03T15:57:36;1.73;;;1.20;;
74636;SDS011;63141;54.616;39.754;2022-09-03T16:00:55;4.07;;;1.13;;
74636;SDS011;63141;54.616;39.754;2022-09-03T16:07:21;1.95;;;1.10;;
74636;SDS011;63141;54.616;39.754;2022-09-03T16:10:31;7.10;;;1.35;;
74636;SDS011;63141;54.616;39.754;2022-09-03T16:24:14;5.30;;;1.85;;
74636;SDS011;63141;54.616;39.754;2022-09-03T16:27:37;5.00;;;1.70;;
74636;SDS011;63141;54.616;39.754;2022-09-03T16:37:30;5.90;;;2.25;;
74636;SDS011;63141;54.616;39.754;2022-09-03T16:58:06;11.27;;;5.03;;
74636;SDS011;63141;54.616;39.754;2022-09-03T17:01:32;14.52;;;5.13;;
74636;SDS011;63141;54.616;39.754;2022-09-03T17:24:45;15.10;;;5.43;;
74636;SDS011;63141;54.616;39.754;2022-09-03T17:28:17;9.70;;;4.18;;
74636;SDS011;63141;54.616;39.754;2022-09-03T17:31:26;10.63;;;4.93;;
74636;SDS011;63141;54.616;39.754;2022-09-03T17:38:36;16.42;;;4.63;;
74636;SDS011;63141;54.616;39.754;2022-09-03T17:54:46;11.35;;;4.60;;
74636;SDS011;63141;54.616;39.754;2022-09-03T17:57:56;10.20;;;4.43;;
74636;SDS011;63141;54.616;39.754;2022-09-03T18:01:25;12.85;;;4.72;;
74636;SDS011;63141;54.616;39.754;2022-09-03T18:11:18;8.00;;;3.97;;
74636;SDS011;63141;54.616;39.754;2022-09-03T18:21:20;8.63;;;4.30;;
74636;SDS011;63141;54.616;39.754;2022-09-03T18:24:44;9.70;;;4.50;;
74636;SDS011;63141;54.616;39.754;2022-09-03T18:28:18;12.65;;;4.50;;
74636;SDS011;63141;54.616;39.754;2022-09-03T18:31:43;7.38;;;4.22;;
74636;SDS011;63141;54.616;39.754;2022-09-03T18:35:04;7.80;;;3.78;;
74636;SDS011;63141;54.616;39.754;2022-09-03T18:38:29;11.10;;;4.35;;
74636;SDS011;63141;54.616;39.754;2022-09-03T18:49:19;9.50;;;4.53;;
74636;SDS011;63141;54.616;39.754;2022-09-03T18:52:54;12.45;;;4.68;;
74636;SDS011;63141;54.616;39.754;2022-09-03T19:03:38;9.40;;;4.22;;
74636;SDS011;63141;54.616;39.754;2022-09-03T19:18:08;6.10;;;3.80;;
74636;SDS011;63141;54.616;39.754;2022-09-03T19:21:35;6.40;;;3.63;;
74636;SDS011;63141;54.616;39.754;2022-09-03T19:25:07;6.97;;;3.92;;
74636;SDS011;63141;54.616;39.754;2022-09-03T19:28:31;6.82;;;3.65;;
74636;SDS011;63141;54.616;39.754;2022-09-03T19:31:59;8.43;;;4.05;;
74636;SDS011;63141;54.616;39.754;2022-09-03T19:35:28;7.10;;;3.80;;
74636;SDS011;63141;54.616;39.754;2022-09-03T19:42:45;9.40;;;4.38;;
74636;SDS011;63141;54.616;39.754;2022-09-03T19:46:38;9.65;;;4.43;;
74636;SDS011;63141;54.616;39.754;2022-09-03T19:50:13;8.90;;;3.95;;
74636;SDS011;63141;54.616;39.754;2022-09-03T19:53:40;7.93;;;4.05;;
74636;SDS011;63141;54.616;39.754;2022-09-03T19:57:01;7.10;;;4.40;;
74636;SDS011;63141;54.616;39.754;2022-09-03T20:00:23;7.07;;;3.80;;
74636;SDS011;63141;54.616;39.754;2022-09-03T20:03:43;8.15;;;3.78;;
74636;SDS011;63141;54.616;39.754;2022-09-03T20:07:07;7.75;;;4.13;;
74636;SDS011;63141;54.616;39.754;2022-09-03T20:10:28;7.00;;;4.00;;
74636;SDS011;63141;54.616;39.754;2022-09-03T20:13:29;7.22;;;3.83;;
74636;SDS011;63141;54.616;39.754;2022-09-03T20:20:26;10.48;;;4.13;;
74636;SDS011;63141;54.616;39.754;2022-09-03T20:27:29;6.82;;;4.00;;
74636;SDS011;63141;54.616;39.754;2022-09-03T20:37:44;7.95;;;4.22;;
74636;SDS011;63141;54.616;39.754;2022-09-03T20:51:02;7.35;;;4.00;;
74636;SDS011;63141;54.616;39.754;2022-09-03T21:00:23;8.52;;;4.13;;
74636;SDS011;63141;54.616;39.754;2022-09-03T21:03:48;7.32;;;3.75;;
74636;SDS011;63141;54.616;39.754;2022-09-03T21:06:54;6.95;;;3.42;;
74636;SDS011;63141;54.616;39.754;2022-09-03T21:10:05;6.53;;;4.15;;
74636;SDS011;63141;54.616;39.754;2022-09-03T21:23:21;7.35;;;3.58;;
74636;SDS011;63141;54.616;39.754;2022-09-03T21:26:28;6.93;;;3.75;;
74636;SDS011;63141;54.616;39.754;2022-09-03T21:33:07;6.25;;;3.45;;
74636;SDS011;63141;54.616;39.754;2022-09-03T21:36:14;6.70;;;3.70;;
74636;SDS011;63141;54.616;39.754;2022-09-03T21:39:33;4.93;;;3.05;;
74636;SDS011;63141;54.616;39.754;2022-09-03T21:42:51;5.43;;;3.33;;
74636;SDS011;63141;54.616;39.754;2022-09-03T21:52:47;5.05;;;3.03;;
74636;SDS011;63141;54.616;39.754;2022-09-03T22:02:41;6.90;;;3.10;;
74636;SDS011;63141;54.616;39.754;2022-09-03T22:06:01;5.47;;;3.40;;
74636;SDS011;63141;54.616;39.754;2022-09-03T22:09:16;5.97;;;3.50;;
74636;SDS011;63141;54.616;39.754;2022-09-03T22:12:31;5.88;;;2.90;;
74636;SDS011;63141;54.616;39.754;2022-09-03T22:15:37;5.20;;;3.17;;
74636;SDS011;63141;54.616;39.754;2022-09-03T22:18:39;5.95;;;2.70;;
74636;SDS011;63141;54.616;39.754;2022-09-03T22:21:47;6.10;;;3.58;;
74636;SDS011;63141;54.616;39.754;2022-09-03T22:31:44;3.83;;;2.75;;
74636;SDS011;63141;54.616;39.754;2022-09-03T22:35:20;5.85;;;3.03;;
74636;SDS011;63141;54.616;39.754;2022-09-03T22:41:55;5.25;;;3.10;;
74636;SDS011;63141;54.616;39.754;2022-09-03T22:45:28;4.70;;;2.95;;
74636;SDS011;63141;54.616;39.754;2022-09-03T22:52:36;4.32;;;2.70;;
74636;SDS011;63141;54.616;39.754;2022-09-03T22:55:45;4.90;;;3.10;;
74636;SDS011;63141;54.616;39.754;2022-09-03T22:59:12;4.63;;;2.83;;
74636;SDS011;63141;54.616;39.754;2022-09-03T23:02:22;5.97;;;2.95;;
74636;SDS011;63141;54.616;39.754;2022-09-03T23:05:49;5.13;;;2.65;;
74636;SDS011;63141;54.616;39.754;2022-09-03T23:09:01;5.60;;;2.90;;
74636;SDS011;63141;54.616;39.754;2022-09-03T23:12:07;5.15;;;2.65;;
74636;SDS011;63141;54.616;39.754;2022-09-03T23:15:16;5.45;;;2.80;;
74636;SDS011;63141;54.616;39.754;2022-09-03T23:18:23;3.78;;;2.55;;
74636;SDS011;63141;54.616;39.754;2022-09-03T23:21:38;4.35;;;2.72;;
74636;SDS011;63141;54.616;39.754;2022-09-03T23:24:52;5.90;;;2.85;;
74636;SDS011;63141;54.616;39.754;2022-09-03T23:27:56;4.70;;;2.80;;
74636;SDS011;63141;54.616;39.754;2022-09-03T23:31:18;6.18;;;3.05;;
74636;SDS011;63141;54.616;39.754;2022-09-03T23:34:20;6.10;;;2.88;;
74636;SDS011;63141;54.616;39.754;2022-09-03T23:41:03;4.32;;;2.70;;
74636;SDS011;63141;54.616;39.754;2022-09-03T23:47:38;3.78;;;2.53;;
74636;SDS011;63141;54.616;39.754;2022-09-03T23:54:12;5.20;;;2.72;;
